sensor_id;sensor_type;location;lat;lon;timestamp;P1;durP1;ratioP1;P2;durP2;ratioP2
34725;SDS011;20951;50.818;4.344;2023-06-22T00:00:56;6.10;;;3.05;;
34725;SDS011;20951;50.818;4.344;2023-06-22T00:03:22;6.50;;;2.83;;
34725;SDS011;20951;50.818;4.344;2023-06-22T00:05:49;6.38;;;2.72;;
34725;SDS011;20951;50.818;4.344;2023-06-22T00:08:16;4.22;;;2.70;;
34725;SDS011;20951;50.818;4.344;2023-06-22T00:10:43;7.65;;;2.75;;
34725;SDS011;20951;50.818;4.344;2023-06-22T00:13:09;5.70;;;2.30;;
34725;SDS011;20951;50.818;4.344;2023-06-22T00:15:37;4.28;;;2.30;;
34725;SDS011;20951;50.818;4.344;2023-06-22T00:18:04;5.97;;;2.83;;
34725;SDS011;20951;50.818;4.344;2023-06-22T00:20:31;4.22;;;2.53;;
34725;SDS011;20951;50.818;4.344;2023-06-22T00:22:57;5.78;;;2.30;;
34725;SDS011;20951;50.818;4.344;2023-06-22T00:25:24;5.25;;;3.15;;
34725;SDS011;20951;50.818;4.344;2023-06-22T00:27:50;4.88;;;2.53;;
34725;SDS011;20951;50.818;4.344;2023-06-22T00:30:16;4.57;;;2.72;;
34725;SDS011;20951;50.818;4.344;2023-06-22T00:32:42;4.63;;;2.70;;
34725;SDS011;20951;50.818;4.344;2023-06-22T00:35:11;5.28;;;2.72;;
34725;SDS011;20951;50.818;4.344;2023-06-22T00:37:38;5.80;;;2.70;;
34725;SDS011;20951;50.818;4.344;2023-06-22T00:40:07;5.18;;;2.83;;
34725;SDS011;20951;50.818;4.344;2023-06-22T00:42:37;4.95;;;2.90;;
34725;SDS011;20951;50.818;4.344;2023-06-22T00:45:04;4.57;;;2.72;;
34725;SDS011;20951;50.818;4.344;2023-06-22T00:47:30;4.53;;;3.00;;
34725;SDS011;20951;50.818;4.344;2023-06-22T00:49:57;4.65;;;3.22;;
34725;SDS011;20951;50.818;4.344;2023-06-22T00:52:23;7.15;;;3.72;;
34725;SDS011;20951;50.818;4.344;2023-06-22T00:54:54;5.68;;;3.25;;
34725;SDS011;20951;50.818;4.344;2023-06-22T00:57:21;5.95;;;3.47;;
34725;SDS011;20951;50.818;4.344;2023-06-22T00:59:52;7.93;;;3.90;;
34725;SDS011;20951;50.818;4.344;2023-06-22T01:02:19;6.38;;;3.67;;
34725;SDS011;20951;50.818;4.344;2023-06-22T01:04:44;6.70;;;3.67;;
34725;SDS011;20951;50.818;4.344;2023-06-22T01:07:12;6.95;;;3.78;;
34725;SDS011;20951;50.818;4.344;2023-06-22T01:12:25;6.05;;;4.25;;
34725;SDS011;20951;50.818;4.344;2023-06-22T01:14:58;6.38;;;3.90;;
34725;SDS011;20951;50.818;4.344;2023-06-22T01:17:32;7.00;;;3.80;;
34725;SDS011;20951;50.818;4.344;2023-06-22T01:19:59;6.55;;;3.83;;
34725;SDS011;20951;50.818;4.344;2023-06-22T01:22:30;7.13;;;4.30;;
34725;SDS011;20951;50.818;4.344;2023-06-22T01:27:39;8.00;;;4.75;;
34725;SDS011;20951;50.818;4.344;2023-06-22T01:30:15;8.75;;;4.38;;
34725;SDS011;20951;50.818;4.344;2023-06-22T01:32:43;10.32;;;5.05;;
34725;SDS011;20951;50.818;4.344;2023-06-22T01:35:10;8.65;;;5.13;;
34725;SDS011;20951;50.818;4.344;2023-06-22T01:37:37;7.50;;;4.55;;
34725;SDS011;20951;50.818;4.344;2023-06-22T01:40:04;6.88;;;4.97;;
34725;SDS011;20951;50.818;4.344;2023-06-22T01:42:31;6.03;;;4.93;;
34725;SDS011;20951;50.818;4.344;2023-06-22T01:44:57;8.05;;;4.80;;
34725;SDS011;20951;50.818;4.344;2023-06-22T01:47:24;8.35;;;5.30;;
34725;SDS011;20951;50.818;4.344;2023-06-22T01:49:52;7.97;;;5.40;;
34725;SDS011;20951;50.818;4.344;2023-06-22T01:52:18;11.50;;;4.88;;
34725;SDS011;20951;50.818;4.344;2023-06-22T01:54:46;7.03;;;4.80;;
34725;SDS011;20951;50.818;4.344;2023-06-22T01:57:12;7.25;;;4.88;;
34725;SDS011;20951;50.818;4.344;2023-06-22T01:59:52;7.78;;;5.32;;
34725;SDS011;20951;50.818;4.344;2023-06-22T02:02:22;8.40;;;5.53;;
34725;SDS011;20951;50.818;4.344;2023-06-22T02:04:58;9.73;;;5.53;;
34725;SDS011;20951;50.818;4.344;2023-06-22T02:07:28;10.90;;;5.43;;
34725;SDS011;20951;50.818;4.344;2023-06-22T02:09:57;6.70;;;4.93;;
34725;SDS011;20951;50.818;4.344;2023-06-22T02:12:25;6.93;;;4.72;;
34725;SDS011;20951;50.818;4.344;2023-06-22T02:14:53;7.05;;;4.90;;
34725;SDS011;20951;50.818;4.344;2023-06-22T02:17:19;7.20;;;5.43;;
34725;SDS011;20951;50.818;4.344;2023-06-22T02:19:46;8.40;;;5.53;;
34725;SDS011;20951;50.818;4.344;2023-06-22T02:22:11;7.82;;;5.45;;
34725;SDS011;20951;50.818;4.344;2023-06-22T02:24:40;7.00;;;4.97;;
34725;SDS011;20951;50.818;4.344;2023-06-22T02:27:06;7.25;;;4.65;;
34725;SDS011;20951;50.818;4.344;2023-06-22T02:29:32;7.55;;;4.53;;
34725;SDS011;20951;50.818;4.344;2023-06-22T02:31:58;6.53;;;4.88;;
34725;SDS011;20951;50.818;4.344;2023-06-22T02:34:24;7.63;;;4.65;;
34725;SDS011;20951;50.818;4.344;2023-06-22T02:36:50;8.23;;;4.90;;
34725;SDS011;20951;50.818;4.344;2023-06-22T02:39:23;7.80;;;5.70;;
34725;SDS011;20951;50.818;4.344;2023-06-22T02:41:50;8.45;;;5.20;;
34725;SDS011;20951;50.818;4.344;2023-06-22T02:44:17;7.60;;;4.72;;
34725;SDS011;20951;50.818;4.344;2023-06-22T02:46:43;7.18;;;4.63;;
34725;SDS011;20951;50.818;4.344;2023-06-22T02:49:09;7.20;;;5.32;;
34725;SDS011;20951;50.818;4.344;2023-06-22T02:51:37;8.95;;;5.10;;
34725;SDS011;20951;50.818;4.344;2023-06-22T02:54:04;8.55;;;5.18;;
34725;SDS011;20951;50.818;4.344;2023-06-22T02:56:31;8.50;;;5.43;;
34725;SDS011;20951;50.818;4.344;2023-06-22T02:58:56;7.35;;;4.80;;
34725;SDS011;20951;50.818;4.344;2023-06-22T03:01:28;7.65;;;5.40;;
34725;SDS011;20951;50.818;4.344;2023-06-22T03:03:55;8.68;;;5.95;;
34725;SDS011;20951;50.818;4.344;2023-06-22T03:06:22;7.53;;;5.82;;
34725;SDS011;20951;50.818;4.344;2023-06-22T03:08:49;9.18;;;6.05;;
34725;SDS011;20951;50.818;4.344;2023-06-22T03:11:16;8.35;;;5.45;;
34725;SDS011;20951;50.818;4.344;2023-06-22T03:13:42;7.07;;;5.68;;
34725;SDS011;20951;50.818;4.344;2023-06-22T03:16:08;10.57;;;6.18;;
34725;SDS011;20951;50.818;4.344;2023-06-22T03:18:33;9.82;;;6.00;;
34725;SDS011;20951;50.818;4.344;2023-06-22T03:20:59;7.95;;;5.63;;
34725;SDS011;20951;50.818;4.344;2023-06-22T03:23:27;7.75;;;5.60;;
34725;SDS011;20951;50.818;4.344;2023-06-22T03:25:53;7.57;;;5.47;;
34725;SDS011;20951;50.818;4.344;2023-06-22T03:28:20;8.02;;;6.00;;
34725;SDS011;20951;50.818;4.344;2023-06-22T03:30:46;7.45;;;5.43;;
34725;SDS011;20951;50.818;4.344;2023-06-22T03:33:12;7.93;;;5.90;;
34725;SDS011;20951;50.818;4.344;2023-06-22T03:35:38;9.10;;;5.70;;
34725;SDS011;20951;50.818;4.344;2023-06-22T03:38:04;8.13;;;5.50;;
34725;SDS011;20951;50.818;4.344;2023-06-22T03:40:29;9.73;;;5.53;;
34725;SDS011;20951;50.818;4.344;2023-06-22T03:42:55;8.52;;;5.90;;
34725;SDS011;20951;50.818;4.344;2023-06-22T03:45:21;7.30;;;5.72;;
34725;SDS011;20951;50.818;4.344;2023-06-22T03:47:47;10.70;;;6.50;;
34725;SDS011;20951;50.818;4.344;2023-06-22T03:50:12;8.38;;;6.00;;
34725;SDS011;20951;50.818;4.344;2023-06-22T03:52:39;9.57;;;6.57;;
34725;SDS011;20951;50.818;4.344;2023-06-22T03:55:06;12.05;;;6.32;;
34725;SDS011;20951;50.818;4.344;2023-06-22T03:57:32;10.25;;;6.53;;
34725;SDS011;20951;50.818;4.344;2023-06-22T03:59:59;11.55;;;7.20;;
34725;SDS011;20951;50.818;4.344;2023-06-22T04:02:26;9.55;;;6.70;;
34725;SDS011;20951;50.818;4.344;2023-06-22T04:04:51;9.95;;;6.53;;
34725;SDS011;20951;50.818;4.344;2023-06-22T04:07:17;11.30;;;7.38;;
34725;SDS011;20951;50.818;4.344;2023-06-22T04:09:43;10.98;;;7.72;;
34725;SDS011;20951;50.818;4.344;2023-06-22T04:12:09;11.43;;;7.25;;
34725;SDS011;20951;50.818;4.344;2023-06-22T04:14:35;11.57;;;8.02;;
34725;SDS011;20951;50.818;4.344;2023-06-22T04:17:00;8.52;;;7.30;;
34725;SDS011;20951;50.818;4.344;2023-06-22T04:19:26;10.38;;;8.13;;
34725;SDS011;20951;50.818;4.344;2023-06-22T04:21:52;10.55;;;8.15;;
34725;SDS011;20951;50.818;4.344;2023-06-22T04:24:18;14.52;;;8.57;;
34725;SDS011;20951;50.818;4.344;2023-06-22T04:26:44;13.05;;;8.60;;
34725;SDS011;20951;50.818;4.344;2023-06-22T04:29:11;12.73;;;8.25;;
34725;SDS011;20951;50.818;4.344;2023-06-22T04:31:38;11.57;;;6.90;;
34725;SDS011;20951;50.818;4.344;2023-06-22T04:34:04;15.10;;;8.52;;
34725;SDS011;20951;50.818;4.344;2023-06-22T04:36:34;10.32;;;8.75;;
34725;SDS011;20951;50.818;4.344;2023-06-22T04:39:07;11.40;;;8.95;;
34725;SDS011;20951;50.818;4.344;2023-06-22T04:41:38;12.25;;;8.57;;
34725;SDS011;20951;50.818;4.344;2023-06-22T04:44:08;12.88;;;9.70;;
34725;SDS011;20951;50.818;4.344;2023-06-22T04:46:35;14.15;;;9.43;;
34725;SDS011;20951;50.818;4.344;2023-06-22T04:49:03;11.07;;;9.02;;
34725;SDS011;20951;50.818;4.344;2023-06-22T04:51:43;12.70;;;9.48;;
34725;SDS011;20951;50.818;4.344;2023-06-22T04:54:09;11.88;;;9.77;;
34725;SDS011;20951;50.818;4.344;2023-06-22T04:56:35;14.65;;;9.75;;
34725;SDS011;20951;50.818;4.344;2023-06-22T04:59:02;14.95;;;9.90;;
34725;SDS011;20951;50.818;4.344;2023-06-22T05:01:28;13.02;;;9.93;;
34725;SDS011;20951;50.818;4.344;2023-06-22T05:03:57;15.32;;;10.35;;
34725;SDS011;20951;50.818;4.344;2023-06-22T05:06:25;13.93;;;10.05;;
34725;SDS011;20951;50.818;4.344;2023-06-22T05:08:55;14.75;;;10.52;;
34725;SDS011;20951;50.818;4.344;2023-06-22T05:11:29;12.95;;;10.13;;
34725;SDS011;20951;50.818;4.344;2023-06-22T05:13:54;15.02;;;10.25;;
34725;SDS011;20951;50.818;4.344;2023-06-22T05:16:21;14.95;;;10.55;;
34725;SDS011;20951;50.818;4.344;2023-06-22T05:18:48;14.15;;;10.27;;
34725;SDS011;20951;50.818;4.344;2023-06-22T05:21:16;15.25;;;11.43;;
34725;SDS011;20951;50.818;4.344;2023-06-22T05:23:41;16.58;;;13.00;;
34725;SDS011;20951;50.818;4.344;2023-06-22T05:26:07;18.40;;;13.70;;
34725;SDS011;20951;50.818;4.344;2023-06-22T05:28:35;19.70;;;15.13;;
34725;SDS011;20951;50.818;4.344;2023-06-22T05:31:01;21.00;;;15.77;;
34725;SDS011;20951;50.818;4.344;2023-06-22T05:33:26;21.65;;;16.40;;
34725;SDS011;20951;50.818;4.344;2023-06-22T05:35:52;22.90;;;16.77;;
34725;SDS011;20951;50.818;4.344;2023-06-22T05:38:18;20.17;;;17.75;;
34725;SDS011;20951;50.818;4.344;2023-06-22T05:40:44;22.05;;;17.13;;
34725;SDS011;20951;50.818;4.344;2023-06-22T05:43:10;19.83;;;17.17;;
34725;SDS011;20951;50.818;4.344;2023-06-22T05:45:36;21.98;;;18.02;;
34725;SDS011;20951;50.818;4.344;2023-06-22T05:48:01;23.05;;;18.70;;
34725;SDS011;20951;50.818;4.344;2023-06-22T05:50:27;18.33;;;16.23;;
34725;SDS011;20951;50.818;4.344;2023-06-22T05:52:53;20.25;;;16.20;;
34725;SDS011;20951;50.818;4.344;2023-06-22T05:55:19;18.50;;;15.18;;
34725;SDS011;20951;50.818;4.344;2023-06-22T05:57:45;22.15;;;15.38;;
34725;SDS011;20951;50.818;4.344;2023-06-22T06:00:11;17.50;;;15.20;;
34725;SDS011;20951;50.818;4.344;2023-06-22T06:02:38;18.52;;;15.85;;
34725;SDS011;20951;50.818;4.344;2023-06-22T06:05:09;18.88;;;13.68;;
34725;SDS011;20951;50.818;4.344;2023-06-22T06:07:36;17.15;;;14.63;;
34725;SDS011;20951;50.818;4.344;2023-06-22T06:10:02;22.73;;;15.35;;
34725;SDS011;20951;50.818;4.344;2023-06-22T06:12:29;21.60;;;16.73;;
34725;SDS011;20951;50.818;4.344;2023-06-22T06:14:55;23.58;;;18.42;;
34725;SDS011;20951;50.818;4.344;2023-06-22T06:17:21;22.30;;;18.13;;
34725;SDS011;20951;50.818;4.344;2023-06-22T06:19:54;22.70;;;18.58;;
34725;SDS011;20951;50.818;4.344;2023-06-22T06:22:20;27.73;;;20.50;;
34725;SDS011;20951;50.818;4.344;2023-06-22T06:24:48;23.83;;;18.88;;
34725;SDS011;20951;50.818;4.344;2023-06-22T06:27:14;23.80;;;19.40;;
34725;SDS011;20951;50.818;4.344;2023-06-22T06:29:40;27.42;;;19.38;;
34725;SDS011;20951;50.818;4.344;2023-06-22T06:32:06;23.65;;;21.15;;
34725;SDS011;20951;50.818;4.344;2023-06-22T06:34:32;21.63;;;18.05;;
34725;SDS011;20951;50.818;4.344;2023-06-22T06:36:58;23.70;;;17.13;;
34725;SDS011;20951;50.818;4.344;2023-06-22T06:39:27;24.10;;;17.30;;
34725;SDS011;20951;50.818;4.344;2023-06-22T06:41:52;27.38;;;17.48;;
34725;SDS011;20951;50.818;4.344;2023-06-22T06:44:18;23.83;;;17.13;;
34725;SDS011;20951;50.818;4.344;2023-06-22T06:46:44;21.88;;;17.88;;
34725;SDS011;20951;50.818;4.344;2023-06-22T06:49:10;25.35;;;18.58;;
34725;SDS011;20951;50.818;4.344;2023-06-22T06:51:39;22.48;;;17.77;;
34725;SDS011;20951;50.818;4.344;2023-06-22T06:54:05;22.55;;;17.98;;
34725;SDS011;20951;50.818;4.344;2023-06-22T06:56:30;25.27;;;18.35;;
34725;SDS011;20951;50.818;4.344;2023-06-22T06:58:58;23.27;;;18.08;;
34725;SDS011;20951;50.818;4.344;2023-06-22T07:01:24;21.85;;;18.45;;
34725;SDS011;20951;50.818;4.344;2023-06-22T07:03:50;22.98;;;18.05;;
34725;SDS011;20951;50.818;4.344;2023-06-22T07:06:16;23.35;;;19.02;;
34725;SDS011;20951;50.818;4.344;2023-06-22T07:08:42;25.15;;;18.83;;
34725;SDS011;20951;50.818;4.344;2023-06-22T07:11:08;25.05;;;18.58;;
34725;SDS011;20951;50.818;4.344;2023-06-22T07:13:34;28.83;;;19.10;;
34725;SDS011;20951;50.818;4.344;2023-06-22T07:15:59;23.17;;;17.80;;
34725;SDS011;20951;50.818;4.344;2023-06-22T07:18:25;26.38;;;19.02;;
34725;SDS011;20951;50.818;4.344;2023-06-22T07:20:51;20.75;;;18.52;;
34725;SDS011;20951;50.818;4.344;2023-06-22T07:23:17;21.45;;;17.95;;
34725;SDS011;20951;50.818;4.344;2023-06-22T07:25:43;24.42;;;18.45;;
34725;SDS011;20951;50.818;4.344;2023-06-22T07:28:14;21.05;;;17.30;;
34725;SDS011;20951;50.818;4.344;2023-06-22T07:30:40;24.02;;;18.38;;
34725;SDS011;20951;50.818;4.344;2023-06-22T07:33:06;24.65;;;18.20;;
34725;SDS011;20951;50.818;4.344;2023-06-22T07:35:33;21.92;;;17.17;;
34725;SDS011;20951;50.818;4.344;2023-06-22T07:37:59;20.25;;;17.00;;
34725;SDS011;20951;50.818;4.344;2023-06-22T07:40:25;20.88;;;15.77;;
34725;SDS011;20951;50.818;4.344;2023-06-22T07:42:51;19.13;;;15.82;;
34725;SDS011;20951;50.818;4.344;2023-06-22T07:45:18;18.45;;;15.82;;
34725;SDS011;20951;50.818;4.344;2023-06-22T07:47:44;20.33;;;16.90;;
34725;SDS011;20951;50.818;4.344;2023-06-22T07:50:10;22.58;;;17.20;;
34725;SDS011;20951;50.818;4.344;2023-06-22T07:52:36;23.67;;;17.33;;
34725;SDS011;20951;50.818;4.344;2023-06-22T07:55:01;29.05;;;20.92;;
34725;SDS011;20951;50.818;4.344;2023-06-22T07:57:27;29.13;;;20.42;;
34725;SDS011;20951;50.818;4.344;2023-06-22T08:00:04;24.05;;;16.23;;
34725;SDS011;20951;50.818;4.344;2023-06-22T08:02:41;21.02;;;16.25;;
34725;SDS011;20951;50.818;4.344;2023-06-22T08:05:08;20.70;;;15.30;;
34725;SDS011;20951;50.818;4.344;2023-06-22T08:07:35;21.92;;;14.82;;
34725;SDS011;20951;50.818;4.344;2023-06-22T08:10:03;20.27;;;14.98;;
34725;SDS011;20951;50.818;4.344;2023-06-22T08:12:29;18.63;;;15.43;;
34725;SDS011;20951;50.818;4.344;2023-06-22T08:14:55;18.20;;;14.63;;
34725;SDS011;20951;50.818;4.344;2023-06-22T08:17:22;20.10;;;15.10;;
34725;SDS011;20951;50.818;4.344;2023-06-22T08:19:50;20.73;;;14.93;;
34725;SDS011;20951;50.818;4.344;2023-06-22T08:22:16;24.40;;;15.98;;
34725;SDS011;20951;50.818;4.344;2023-06-22T08:24:42;22.27;;;15.77;;
34725;SDS011;20951;50.818;4.344;2023-06-22T08:27:09;20.35;;;16.00;;
34725;SDS011;20951;50.818;4.344;2023-06-22T08:29:37;21.55;;;15.60;;
34725;SDS011;20951;50.818;4.344;2023-06-22T08:32:03;22.45;;;15.00;;
34725;SDS011;20951;50.818;4.344;2023-06-22T08:34:30;19.42;;;14.93;;
34725;SDS011;20951;50.818;4.344;2023-06-22T08:36:56;19.38;;;15.68;;
34725;SDS011;20951;50.818;4.344;2023-06-22T08:39:22;17.25;;;15.38;;
34725;SDS011;20951;50.818;4.344;2023-06-22T08:41:48;22.70;;;16.23;;
34725;SDS011;20951;50.818;4.344;2023-06-22T08:44:14;20.25;;;15.65;;
34725;SDS011;20951;50.818;4.344;2023-06-22T08:46:42;18.00;;;16.10;;
34725;SDS011;20951;50.818;4.344;2023-06-22T08:49:08;23.45;;;15.57;;
34725;SDS011;20951;50.818;4.344;2023-06-22T08:51:34;22.08;;;15.65;;
34725;SDS011;20951;50.818;4.344;2023-06-22T08:54:00;19.13;;;15.70;;
34725;SDS011;20951;50.818;4.344;2023-06-22T08:56:26;19.13;;;15.32;;
34725;SDS011;20951;50.818;4.344;2023-06-22T08:58:52;19.60;;;16.05;;
34725;SDS011;20951;50.818;4.344;2023-06-22T09:01:18;22.02;;;15.30;;
34725;SDS011;20951;50.818;4.344;2023-06-22T09:03:44;17.00;;;14.77;;
34725;SDS011;20951;50.818;4.344;2023-06-22T09:06:19;21.33;;;15.30;;
34725;SDS011;20951;50.818;4.344;2023-06-22T09:08:46;17.38;;;15.10;;
34725;SDS011;20951;50.818;4.344;2023-06-22T09:11:12;25.40;;;22.60;;
34725;SDS011;20951;50.818;4.344;2023-06-22T09:13:38;20.02;;;14.80;;
34725;SDS011;20951;50.818;4.344;2023-06-22T09:16:04;17.88;;;15.05;;
34725;SDS011;20951;50.818;4.344;2023-06-22T09:18:30;16.10;;;14.23;;
34725;SDS011;20951;50.818;4.344;2023-06-22T09:20:56;20.38;;;13.95;;
34725;SDS011;20951;50.818;4.344;2023-06-22T09:23:22;18.73;;;13.95;;
34725;SDS011;20951;50.818;4.344;2023-06-22T09:25:48;15.52;;;13.77;;
34725;SDS011;20951;50.818;4.344;2023-06-22T09:28:14;18.63;;;13.70;;
34725;SDS011;20951;50.818;4.344;2023-06-22T09:30:40;16.45;;;13.80;;
34725;SDS011;20951;50.818;4.344;2023-06-22T09:33:05;18.52;;;14.25;;
34725;SDS011;20951;50.818;4.344;2023-06-22T09:35:31;21.05;;;15.30;;
34725;SDS011;20951;50.818;4.344;2023-06-22T09:37:57;17.60;;;14.80;;
34725;SDS011;20951;50.818;4.344;2023-06-22T09:40:23;27.95;;;18.25;;
34725;SDS011;20951;50.818;4.344;2023-06-22T09:42:51;22.38;;;16.85;;
34725;SDS011;20951;50.818;4.344;2023-06-22T09:45:19;23.80;;;17.27;;
34725;SDS011;20951;50.818;4.344;2023-06-22T09:47:45;23.20;;;20.45;;
34725;SDS011;20951;50.818;4.344;2023-06-22T09:50:10;22.58;;;18.85;;
34725;SDS011;20951;50.818;4.344;2023-06-22T09:52:36;27.00;;;21.55;;
34725;SDS011;20951;50.818;4.344;2023-06-22T09:55:02;34.17;;;23.38;;
34725;SDS011;20951;50.818;4.344;2023-06-22T09:57:29;40.97;;;27.02;;
34725;SDS011;20951;50.818;4.344;2023-06-22T09:59:55;28.02;;;23.98;;
34725;SDS011;20951;50.818;4.344;2023-06-22T10:02:21;34.53;;;27.60;;
34725;SDS011;20951;50.818;4.344;2023-06-22T10:04:47;29.02;;;24.80;;
34725;SDS011;20951;50.818;4.344;2023-06-22T10:07:20;31.53;;;25.83;;
34725;SDS011;20951;50.818;4.344;2023-06-22T10:09:46;29.38;;;25.65;;
34725;SDS011;20951;50.818;4.344;2023-06-22T10:12:14;33.60;;;28.77;;
34725;SDS011;20951;50.818;4.344;2023-06-22T10:14:40;35.70;;;31.02;;
34725;SDS011;20951;50.818;4.344;2023-06-22T10:17:07;35.08;;;29.13;;
34725;SDS011;20951;50.818;4.344;2023-06-22T10:19:33;36.38;;;28.27;;
34725;SDS011;20951;50.818;4.344;2023-06-22T10:22:02;35.40;;;29.17;;
34725;SDS011;20951;50.818;4.344;2023-06-22T10:24:28;31.80;;;28.38;;
34725;SDS011;20951;50.818;4.344;2023-06-22T10:26:54;34.03;;;29.15;;
34725;SDS011;20951;50.818;4.344;2023-06-22T10:29:20;28.05;;;24.70;;
34725;SDS011;20951;50.818;4.344;2023-06-22T10:31:46;28.90;;;25.75;;
34725;SDS011;20951;50.818;4.344;2023-06-22T10:34:12;26.60;;;23.45;;
34725;SDS011;20951;50.818;4.344;2023-06-22T10:36:38;26.52;;;22.90;;
34725;SDS011;20951;50.818;4.344;2023-06-22T10:39:04;25.63;;;21.95;;
34725;SDS011;20951;50.818;4.344;2023-06-22T10:41:30;28.58;;;24.67;;
34725;SDS011;20951;50.818;4.344;2023-06-22T10:43:59;28.55;;;25.35;;
34725;SDS011;20951;50.818;4.344;2023-06-22T10:46:25;31.40;;;25.98;;
34725;SDS011;20951;50.818;4.344;2023-06-22T10:48:53;27.08;;;24.20;;
34725;SDS011;20951;50.818;4.344;2023-06-22T10:51:30;30.30;;;25.42;;
34725;SDS011;20951;50.818;4.344;2023-06-22T10:53:57;27.25;;;24.15;;
34725;SDS011;20951;50.818;4.344;2023-06-22T10:56:28;29.35;;;25.58;;
34725;SDS011;20951;50.818;4.344;2023-06-22T10:58:54;30.42;;;27.23;;
34725;SDS011;20951;50.818;4.344;2023-06-22T11:01:20;32.47;;;27.30;;
34725;SDS011;20951;50.818;4.344;2023-06-22T11:03:56;29.63;;;26.42;;
34725;SDS011;20951;50.818;4.344;2023-06-22T11:06:22;33.17;;;28.48;;
34725;SDS011;20951;50.818;4.344;2023-06-22T11:08:48;33.03;;;29.45;;
34725;SDS011;20951;50.818;4.344;2023-06-22T11:11:23;33.03;;;29.52;;
34725;SDS011;20951;50.818;4.344;2023-06-22T11:13:53;30.70;;;27.10;;
34725;SDS011;20951;50.818;4.344;2023-06-22T11:16:18;31.15;;;27.77;;
34725;SDS011;20951;50.818;4.344;2023-06-22T11:18:51;33.13;;;29.63;;
34725;SDS011;20951;50.818;4.344;2023-06-22T11:21:17;34.13;;;30.42;;
34725;SDS011;20951;50.818;4.344;2023-06-22T11:23:43;33.53;;;30.05;;
34725;SDS011;20951;50.818;4.344;2023-06-22T11:26:09;33.97;;;29.45;;
34725;SDS011;20951;50.818;4.344;2023-06-22T11:28:38;34.17;;;30.55;;
34725;SDS011;20951;50.818;4.344;2023-06-22T11:31:03;34.30;;;29.10;;
34725;SDS011;20951;50.818;4.344;2023-06-22T11:33:29;34.28;;;30.75;;
34725;SDS011;20951;50.818;4.344;2023-06-22T11:35:55;34.85;;;31.05;;
34725;SDS011;20951;50.818;4.344;2023-06-22T11:38:25;37.78;;;31.85;;
34725;SDS011;20951;50.818;4.344;2023-06-22T11:40:51;36.63;;;30.55;;
34725;SDS011;20951;50.818;4.344;2023-06-22T11:43:17;33.42;;;29.08;;
34725;SDS011;20951;50.818;4.344;2023-06-22T11:45:46;32.80;;;29.17;;
34725;SDS011;20951;50.818;4.344;2023-06-22T11:48:12;31.88;;;28.42;;
34725;SDS011;20951;50.818;4.344;2023-06-22T11:50:38;29.92;;;26.73;;
34725;SDS011;20951;50.818;4.344;2023-06-22T11:53:07;31.10;;;27.63;;
34725;SDS011;20951;50.818;4.344;2023-06-22T11:55:33;32.88;;;29.27;;
34725;SDS011;20951;50.818;4.344;2023-06-22T11:57:59;33.30;;;28.58;;
34725;SDS011;20951;50.818;4.344;2023-06-22T12:00:28;31.95;;;28.30;;
34725;SDS011;20951;50.818;4.344;2023-06-22T12:02:54;31.02;;;27.00;;
34725;SDS011;20951;50.818;4.344;2023-06-22T12:05:21;31.98;;;28.58;;
34725;SDS011;20951;50.818;4.344;2023-06-22T12:07:49;31.38;;;28.15;;
34725;SDS011;20951;50.818;4.344;2023-06-22T12:10:23;33.80;;;29.50;;
34725;SDS011;20951;50.818;4.344;2023-06-22T12:12:50;33.78;;;30.17;;
34725;SDS011;20951;50.818;4.344;2023-06-22T12:15:18;32.72;;;29.20;;
34725;SDS011;20951;50.818;4.344;2023-06-22T12:17:44;33.65;;;30.05;;
34725;SDS011;20951;50.818;4.344;2023-06-22T12:20:13;36.80;;;30.88;;
34725;SDS011;20951;50.818;4.344;2023-06-22T12:22:46;31.55;;;28.25;;
34725;SDS011;20951;50.818;4.344;2023-06-22T12:25:12;32.63;;;28.77;;
34725;SDS011;20951;50.818;4.344;2023-06-22T12:27:47;33.78;;;29.55;;
34725;SDS011;20951;50.818;4.344;2023-06-22T12:30:20;34.88;;;31.13;;
34725;SDS011;20951;50.818;4.344;2023-06-22T12:32:46;33.60;;;29.85;;
34725;SDS011;20951;50.818;4.344;2023-06-22T12:35:11;34.97;;;31.02;;
34725;SDS011;20951;50.818;4.344;2023-06-22T12:37:42;36.95;;;32.40;;
34725;SDS011;20951;50.818;4.344;2023-06-22T12:40:10;36.47;;;32.70;;
34725;SDS011;20951;50.818;4.344;2023-06-22T12:42:36;37.38;;;32.50;;
34725;SDS011;20951;50.818;4.344;2023-06-22T12:45:02;39.38;;;33.67;;
34725;SDS011;20951;50.818;4.344;2023-06-22T12:47:30;38.30;;;34.30;;
34725;SDS011;20951;50.818;4.344;2023-06-22T12:49:56;38.45;;;34.28;;
34725;SDS011;20951;50.818;4.344;2023-06-22T12:52:22;40.25;;;34.55;;
34725;SDS011;20951;50.818;4.344;2023-06-22T12:54:48;41.45;;;35.15;;
34725;SDS011;20951;50.818;4.344;2023-06-22T12:57:14;40.95;;;36.00;;
34725;SDS011;20951;50.818;4.344;2023-06-22T12:59:42;42.45;;;37.88;;
34725;SDS011;20951;50.818;4.344;2023-06-22T13:02:08;43.08;;;38.38;;
34725;SDS011;20951;50.818;4.344;2023-06-22T13:04:36;47.65;;;41.28;;
34725;SDS011;20951;50.818;4.344;2023-06-22T13:07:02;46.17;;;41.13;;
34725;SDS011;20951;50.818;4.344;2023-06-22T13:09:28;49.67;;;43.88;;
34725;SDS011;20951;50.818;4.344;2023-06-22T13:11:54;52.22;;;44.15;;
34725;SDS011;20951;50.818;4.344;2023-06-22T13:14:20;54.00;;;45.10;;
34725;SDS011;20951;50.818;4.344;2023-06-22T13:16:53;55.20;;;45.65;;
34725;SDS011;20951;50.818;4.344;2023-06-22T13:19:22;54.78;;;46.78;;
34725;SDS011;20951;50.818;4.344;2023-06-22T13:21:57;56.40;;;47.08;;
34725;SDS011;20951;50.818;4.344;2023-06-22T13:24:23;64.47;;;47.22;;
34725;SDS011;20951;50.818;4.344;2023-06-22T13:26:49;61.85;;;48.72;;
34725;SDS011;20951;50.818;4.344;2023-06-22T13:29:18;64.25;;;50.33;;
34725;SDS011;20951;50.818;4.344;2023-06-22T13:31:44;62.85;;;50.33;;
34725;SDS011;20951;50.818;4.344;2023-06-22T13:34:10;59.80;;;50.28;;
34725;SDS011;20951;50.818;4.344;2023-06-22T13:36:39;51.58;;;45.28;;
34725;SDS011;20951;50.818;4.344;2023-06-22T13:39:14;50.83;;;44.65;;
34725;SDS011;20951;50.818;4.344;2023-06-22T13:41:39;53.25;;;45.28;;
34725;SDS011;20951;50.818;4.344;2023-06-22T13:44:08;67.50;;;47.83;;
34725;SDS011;20951;50.818;4.344;2023-06-22T13:46:39;55.45;;;46.60;;
34725;SDS011;20951;50.818;4.344;2023-06-22T13:49:07;53.78;;;45.08;;
34725;SDS011;20951;50.818;4.344;2023-06-22T13:51:37;51.65;;;44.10;;
34725;SDS011;20951;50.818;4.344;2023-06-22T13:54:10;55.90;;;45.95;;
34725;SDS011;20951;50.818;4.344;2023-06-22T13:56:39;49.75;;;42.38;;
34725;SDS011;20951;50.818;4.344;2023-06-22T13:59:05;49.92;;;42.40;;
34725;SDS011;20951;50.818;4.344;2023-06-22T14:01:34;51.08;;;44.22;;
34725;SDS011;20951;50.818;4.344;2023-06-22T14:04:04;50.08;;;44.63;;
34725;SDS011;20951;50.818;4.344;2023-06-22T14:06:31;51.15;;;44.05;;
34725;SDS011;20951;50.818;4.344;2023-06-22T14:08:56;49.30;;;42.95;;
34725;SDS011;20951;50.818;4.344;2023-06-22T14:11:22;49.40;;;42.30;;
34725;SDS011;20951;50.818;4.344;2023-06-22T14:13:49;47.65;;;41.50;;
34725;SDS011;20951;50.818;4.344;2023-06-22T14:16:15;45.67;;;40.05;;
34725;SDS011;20951;50.818;4.344;2023-06-22T14:18:41;48.15;;;42.95;;
34725;SDS011;20951;50.818;4.344;2023-06-22T14:21:07;48.10;;;42.08;;
34725;SDS011;20951;50.818;4.344;2023-06-22T14:23:33;47.13;;;39.83;;
34725;SDS011;20951;50.818;4.344;2023-06-22T14:25:59;47.97;;;41.28;;
34725;SDS011;20951;50.818;4.344;2023-06-22T14:28:25;43.97;;;39.25;;
34725;SDS011;20951;50.818;4.344;2023-06-22T14:30:50;47.78;;;41.95;;
34725;SDS011;20951;50.818;4.344;2023-06-22T14:33:16;44.08;;;39.33;;